Time;durP1;ratioP1;P1;durP2;ratioP2;P2;SDS_P1;SDS_P2;PMS_P1;PMS_P2;Temp;Humidity;BMP_temperature;BMP_pressure;BME280_temperature;BME280_humidity;BME280_pressure;Samples;Min_cycle;Max_cycle;Signal;HPM_P1;HPM_P2
2022/04/01 00:00:26;;;;;;;6.75;5.7;;;;;;;6.84;88.56934;92967.44;;;;
2022/04/01 00:01:26;;;;;;;6.75;5.7;;;;;;;6.84;88.56934;92967.44;;;;
2022/04/01 00:02:27;;;;;;;6.75;5.7;;;;;;;6.84;88.56934;92967.44;;;;
2022/04/01 00:03:28;;;;;;;6.75;5.7;;;;;;;6.84;88.56934;92967.44;;;;
2022/04/01 00:04:29;;;;;;;7.000001;6.299999;;;;;;;6.58;89.04102;92961.03;;;;
2022/04/01 00:05:29;;;;;;;7.000001;6.299999;;;;;;;6.58;89.04102;92961.03;;;;
2022/04/01 00:06:30;;;;;;;7.000001;6.299999;;;;;;;6.58;89.04102;92961.03;;;;
2022/04/01 00:07:30;;;;;;;7.000001;6.299999;;;;;;;6.58;89.04102;92961.03;;;;
2022/04/01 00:08:31;;;;;;;7.000001;6.299999;;;;;;;6.58;89.04102;92961.03;;;;
2022/04/01 00:09:31;;;;;;;7.000001;6.299999;;;;;;;6.58;89.04102;92961.03;;;;
2022/04/01 00:10:32;;;;;;;7.000001;6.299999;;;;;;;6.58;89.04102;92961.03;;;;
2022/04/01 00:11:33;;;;;;;7.000001;6.299999;;;;;;;6.58;89.04102;92961.03;;;;
2022/04/01 00:12:33;;;;;;;7.000001;6.299999;;;;;;;6.58;89.04102;92961.03;;;;
2022/04/01 00:13:38;;;;;;;7.000001;6.299999;;;;;;;6.58;89.04102;92961.03;;;;
2022/04/01 00:14:39;;;;;;;7.000001;6.299999;;;;;;;6.58;89.04102;92961.03;;;;
2022/04/01 00:15:39;;;;;;;7.349999;6.6;;;;;;;6.38;90.08691;92965.03;;;;
2022/04/01 00:16:40;;;;;;;7.349999;6.6;;;;;;;6.38;90.08691;92965.03;;;;
2022/04/01 00:17:41;;;;;;;7.349999;6.6;;;;;;;6.38;90.08691;92965.03;;;;
2022/04/01 00:18:43;;;;;;;7.349999;6.6;;;;;;;6.38;90.08691;92965.03;;;;
2022/04/01 00:19:43;;;;;;;7.349999;6.6;;;;;;;6.38;90.08691;92965.03;;;;
2022/04/01 00:20:44;;;;;;;7.349999;6.6;;;;;;;6.38;90.08691;92965.03;;;;
2022/04/01 00:21:44;;;;;;;7.349999;6.6;;;;;;;6.38;90.08691;92965.03;;;;
2022/04/01 00:22:45;;;;;;;7.349999;6.6;;;;;;;6.38;90.08691;92965.03;;;;
2022/04/01 00:23:46;;;;;;;7.349999;6.6;;;;;;;6.38;90.08691;92965.03;;;;
2022/04/01 00:24:46;;;;;;;7.349999;6.6;;;;;;;6.38;90.08691;92965.03;;;;
2022/04/01 00:25:47;;;;;;;7.349999;6.6;;;;;;;6.38;90.08691;92965.03;;;;
2022/04/01 00:26:47;;;;;;;7.349999;6.6;;;;;;;6.38;90.08691;92965.03;;;;
2022/04/01 00:27:49;;;;;;;7.349999;6.6;;;;;;;6.38;90.08691;92965.03;;;;
2022/04/01 00:28:50;;;;;;;7.349999;6.6;;;;;;;6.38;90.08691;92965.03;;;;
2022/04/01 00:29:50;;;;;;;7.349999;6.6;;;;;;;6.38;90.08691;92965.03;;;;
2022/04/01 00:30:53;;;;;;;7.349999;6.6;;;;;;;6.38;90.08691;92965.03;;;;
2022/04/01 00:31:58;;;;;;;7.349999;6.6;;;;;;;6.38;90.08691;92965.03;;;;
2022/04/01 00:32:59;;;;;;;7.349999;6.6;;;;;;;6.38;90.08691;92965.03;;;;
2022/04/01 00:34:15;;;;;;;7.349999;6.6;;;;;;;6.38;90.08691;92965.03;;;;
2022/04/01 00:35:16;;;;;;;7.349999;6.6;;;;;;;6.38;90.08691;92965.03;;;;
2022/04/01 00:36:17;;;;;;;9.25;7.349999;;;;;;;6.12;91.43555;92951.6;;;;
2022/04/01 00:37:17;;;;;;;9.25;7.349999;;;;;;;6.12;91.43555;92951.6;;;;
2022/04/01 00:38:19;;;;;;;9.25;7.349999;;;;;;;6.12;91.43555;92951.6;;;;
2022/04/01 00:39:20;;;;;;;9.25;7.349999;;;;;;;6.12;91.43555;92951.6;;;;
2022/04/01 00:40:22;;;;;;;9.25;7.349999;;;;;;;6.12;91.43555;92951.6;;;;
2022/04/01 00:41:23;;;;;;;9.25;7.349999;;;;;;;6.12;91.43555;92951.6;;;;
2022/04/01 00:42:25;;;;;;;9.25;7.349999;;;;;;;6.12;91.43555;92951.6;;;;
2022/04/01 00:43:26;;;;;;;9.25;7.349999;;;;;;;6.12;91.43555;92951.6;;;;
2022/04/01 00:44:27;;;;;;;9.25;7.349999;;;;;;;6.12;91.43555;92951.6;;;;
2022/04/01 00:45:30;;;;;;;9.25;7.349999;;;;;;;6.12;91.43555;92951.6;;;;
2022/04/01 00:46:31;;;;;;;9.25;7.349999;;;;;;;6.12;91.43555;92951.6;;;;
2022/04/01 00:47:31;;;;;;;9.25;7.349999;;;;;;;6.12;91.43555;92951.6;;;;
2022/04/01 00:48:32;;;;;;;9.25;7.349999;;;;;;;6.12;91.43555;92951.6;;;;
2022/04/01 00:49:32;;;;;;;9.25;7.349999;;;;;;;6.12;91.43555;92951.6;;;;
2022/04/01 00:50:34;;;;;;;9.25;7.349999;;;;;;;6.12;91.43555;92951.6;;;;
2022/04/01 00:51:35;;;;;;;9.25;7.349999;;;;;;;6.12;91.43555;92951.6;;;;
2022/04/01 00:52:36;;;;;;;9.25;7.349999;;;;;;;6.12;91.43555;92951.6;;;;
2022/04/01 00:53:37;;;;;;;9.25;7.349999;;;;;;;6.12;91.43555;92951.6;;;;
2022/04/01 00:54:37;;;;;;;9.25;7.349999;;;;;;;6.12;91.43555;92951.6;;;;
2022/04/01 00:55:38;;;;;;;9.25;7.349999;;;;;;;6.12;91.43555;92951.6;;;;
2022/04/01 00:56:40;;;;;;;9.25;7.349999;;;;;;;6.12;91.43555;92951.6;;;;
2022/04/01 00:57:41;;;;;;;7.500001;6.299999;;;;;;;5.99;92.47168;92957.46;;;;
2022/04/01 00:58:41;;;;;;;7.500001;6.299999;;;;;;;5.99;92.47168;92957.46;;;;
2022/04/01 00:59:42;;;;;;;7.500001;6.299999;;;;;;;5.99;92.47168;92957.46;;;;
2022/04/01 01:00:43;;;;;;;7.500001;6.299999;;;;;;;5.99;92.47168;92957.46;;;;
2022/04/01 01:01:43;;;;;;;7.500001;6.299999;;;;;;;5.99;92.47168;92957.46;;;;
2022/04/01 01:02:44;;;;;;;7.500001;6.299999;;;;;;;5.99;92.47168;92957.46;;;;
2022/04/01 01:03:45;;;;;;;7.500001;6.299999;;;;;;;5.99;92.47168;92957.46;;;;
2022/04/01 01:04:46;;;;;;;7.500001;6.299999;;;;;;;5.99;92.47168;92957.46;;;;
2022/04/01 01:05:47;;;;;;;7.500001;6.299999;;;;;;;5.99;92.47168;92957.46;;;;
2022/04/01 01:06:48;;;;;;;7.500001;6.299999;;;;;;;5.99;92.47168;92957.46;;;;
2022/04/01 01:07:52;;;;;;;7.500001;6.299999;;;;;;;5.99;92.47168;92957.46;;;;
2022/04/01 01:08:54;;;;;;;6.799999;5.5;;;;;;;5.92;92.89941;92950.22;;;;
2022/04/01 01:09:54;;;;;;;6.799999;5.5;;;;;;;5.92;92.89941;92950.22;;;;
2022/04/01 01:10:55;;;;;;;6.799999;5.5;;;;;;;5.92;92.89941;92950.22;;;;
2022/04/01 01:11:56;;;;;;;6.799999;5.5;;;;;;;5.92;92.89941;92950.22;;;;
2022/04/01 01:12:56;;;;;;;6.799999;5.5;;;;;;;5.92;92.89941;92950.22;;;;
2022/04/01 01:13:57;;;;;;;6.799999;5.5;;;;;;;5.92;92.89941;92950.22;;;;
2022/04/01 01:14:59;;;;;;;6.799999;5.5;;;;;;;5.92;92.89941;92950.22;;;;
2022/04/01 01:16:07;;;;;;;6.799999;5.5;;;;;;;5.92;92.89941;92950.22;;;;
2022/04/01 01:17:07;;;;;;;6.799999;5.5;;;;;;;5.92;92.89941;92950.22;;;;
2022/04/01 01:18:10;;;;;;;6.799999;5.5;;;;;;;5.92;92.89941;92950.22;;;;
2022/04/01 01:19:15;;;;;;;7.649999;5.7;;;;;;;5.79;93.25;92936.52;;;;
2022/04/01 01:20:17;;;;;;;7.649999;5.7;;;;;;;5.79;93.25;92936.52;;;;
2022/04/01 01:21:19;;;;;;;7.649999;5.7;;;;;;;5.79;93.25;92936.52;;;;
2022/04/01 01:22:19;;;;;;;7.649999;5.7;;;;;;;5.79;93.25;92936.52;;;;
2022/04/01 01:23:19;;;;;;;7.649999;5.7;;;;;;;5.79;93.25;92936.52;;;;
2022/04/01 01:24:26;;;;;;;7.649999;5.7;;;;;;;5.79;93.25;92936.52;;;;
2022/04/01 01:25:29;;;;;;;7.649999;5.7;;;;;;;5.79;93.25;92936.52;;;;
2022/04/01 01:26:32;;;;;;;7.649999;5.7;;;;;;;5.79;93.25;92936.52;;;;
2022/04/01 01:27:34;;;;;;;7.649999;5.7;;;;;;;5.79;93.25;92936.52;;;;
2022/04/01 01:28:34;;;;;;;7.649999;5.7;;;;;;;5.79;93.25;92936.52;;;;
2022/04/01 01:29:37;;;;;;;7.45;6;;;;;;;5.75;93.85254;92937.17;;;;
2022/04/01 01:30:41;;;;;;;7.45;6;;;;;;;5.75;93.85254;92937.17;;;;
2022/04/01 01:31:41;;;;;;;7.45;6;;;;;;;5.75;93.85254;92937.17;;;;
2022/04/01 01:32:43;;;;;;;7.45;6;;;;;;;5.75;93.85254;92937.17;;;;
2022/04/01 01:33:43;;;;;;;7.45;6;;;;;;;5.75;93.85254;92937.17;;;;
2022/04/01 01:34:44;;;;;;;7.45;6;;;;;;;5.75;93.85254;92937.17;;;;
2022/04/01 01:35:45;;;;;;;7.45;6;;;;;;;5.75;93.85254;92937.17;;;;
2022/04/01 01:36:45;;;;;;;7.45;6;;;;;;;5.75;93.85254;92937.17;;;;
2022/04/01 01:37:46;;;;;;;7.45;6;;;;;;;5.75;93.85254;92937.17;;;;
2022/04/01 01:38:46;;;;;;;7.45;6;;;;;;;5.75;93.85254;92937.17;;;;
2022/04/01 01:39:47;;;;;;;7.45;6;;;;;;;5.75;93.85254;92937.17;;;;
2022/04/01 01:40:48;;;;;;;8.65;6.55;;;;;;;5.78;94.28809;92931.27;;;;
2022/04/01 01:41:49;;;;;;;8.65;6.55;;;;;;;5.78;94.28809;92931.27;;;;
2022/04/01 01:42:50;;;;;;;8.65;6.55;;;;;;;5.78;94.28809;92931.27;;;;
2022/04/01 01:43:50;;;;;;;8.65;6.55;;;;;;;5.78;94.28809;92931.27;;;;
2022/04/01 01:44:51;;;;;;;8.65;6.55;;;;;;;5.78;94.28809;92931.27;;;;
2022/04/01 01:45:51;;;;;;;8.65;6.55;;;;;;;5.78;94.28809;92931.27;;;;
2022/04/01 01:46:52;;;;;;;8.65;6.55;;;;;;;5.78;94.28809;92931.27;;;;
2022/04/01 01:47:53;;;;;;;8.65;6.55;;;;;;;5.78;94.28809;92931.27;;;;
2022/04/01 01:48:54;;;;;;;8.65;6.55;;;;;;;5.78;94.28809;92931.27;;;;
2022/04/01 01:55:07;;;;;;;9.4;7.200001;;;;;;;5.81;94.42188;92931.14;;;;
2022/04/01 01:56:08;;;;;;;9.4;7.200001;;;;;;;5.81;94.42188;92931.14;;;;
2022/04/01 01:57:08;;;;;;;9.4;7.200001;;;;;;;5.81;94.42188;92931.14;;;;
2022/04/01 01:58:10;;;;;;;9.4;7.200001;;;;;;;5.81;94.42188;92931.14;;;;
2022/04/01 01:59:11;;;;;;;9.4;7.200001;;;;;;;5.81;94.42188;92931.14;;;;
2022/04/01 02:00:12;;;;;;;9.4;7.200001;;;;;;;5.81;94.42188;92931.14;;;;
2022/04/01 02:01:14;;;;;;;9.4;7.200001;;;;;;;5.81;94.42188;92931.14;;;;
2022/04/01 02:02:14;;;;;;;9.799998;7.05;;;;;;;5.85;96.07129;92917.54;;;;
2022/04/01 02:03:15;;;;;;;9.799998;7.05;;;;;;;5.85;96.07129;92917.54;;;;
2022/04/01 02:04:15;;;;;;;9.799998;7.05;;;;;;;5.85;96.07129;92917.54;;;;
2022/04/01 02:05:16;;;;;;;9.799998;7.05;;;;;;;5.85;96.07129;92917.54;;;;
2022/04/01 02:06:17;;;;;;;9.799998;7.05;;;;;;;5.85;96.07129;92917.54;;;;
2022/04/01 02:07:18;;;;;;;9.799998;7.05;;;;;;;5.85;96.07129;92917.54;;;;
2022/04/01 02:08:19;;;;;;;9.799998;7.05;;;;;;;5.85;96.07129;92917.54;;;;
2022/04/01 02:09:19;;;;;;;9.799998;7.05;;;;;;;5.85;96.07129;92917.54;;;;
2022/04/01 02:10:20;;;;;;;9.799998;7.05;;;;;;;5.85;96.07129;92917.54;;;;
2022/04/01 02:11:21;;;;;;;9.799998;7.05;;;;;;;5.85;96.07129;92917.54;;;;
2022/04/01 02:12:22;;;;;;;6.5;5.799999;;;;;;;5.69;97.13867;92928.85;;;;
2022/04/01 02:13:23;;;;;;;6.5;5.799999;;;;;;;5.69;97.13867;92928.85;;;;
2022/04/01 02:14:24;;;;;;;6.5;5.799999;;;;;;;5.69;97.13867;92928.85;;;;
2022/04/01 02:15:25;;;;;;;6.5;5.799999;;;;;;;5.69;97.13867;92928.85;;;;
2022/04/01 02:16:26;;;;;;;6.5;5.799999;;;;;;;5.69;97.13867;92928.85;;;;
2022/04/01 02:17:26;;;;;;;6.5;5.799999;;;;;;;5.69;97.13867;92928.85;;;;
2022/04/01 02:18:26;;;;;;;6.5;5.799999;;;;;;;5.69;97.13867;92928.85;;;;
2022/04/01 02:19:30;;;;;;;6.5;5.799999;;;;;;;5.69;97.13867;92928.85;;;;
2022/04/01 02:20:33;;;;;;;6.5;5.799999;;;;;;;5.69;97.13867;92928.85;;;;
2022/04/01 02:21:33;;;;;;;6.5;5.799999;;;;;;;5.69;97.13867;92928.85;;;;
2022/04/01 02:22:33;;;;;;;6.5;5.799999;;;;;;;5.69;97.13867;92928.85;;;;
2022/04/01 02:23:34;;;;;;;7;5.7;;;;;;;5.34;98.21777;92929.52;;;;
2022/04/01 02:24:36;;;;;;;7;5.7;;;;;;;5.34;98.21777;92929.52;;;;
2022/04/01 02:25:36;;;;;;;7;5.7;;;;;;;5.34;98.21777;92929.52;;;;
2022/04/01 02:26:37;;;;;;;7;5.7;;;;;;;5.34;98.21777;92929.52;;;;
2022/04/01 02:27:37;;;;;;;7;5.7;;;;;;;5.34;98.21777;92929.52;;;;
2022/04/01 02:28:38;;;;;;;7;5.7;;;;;;;5.34;98.21777;92929.52;;;;
2022/04/01 02:29:40;;;;;;;7;5.7;;;;;;;5.34;98.21777;92929.52;;;;
2022/04/01 02:30:41;;;;;;;7;5.7;;;;;;;5.34;98.21777;92929.52;;;;
2022/04/01 02:31:41;;;;;;;7;5.7;;;;;;;5.34;98.21777;92929.52;;;;
2022/04/01 02:32:42;;;;;;;7;5.7;;;;;;;5.34;98.21777;92929.52;;;;
2022/04/01 02:33:43;;;;;;;5.65;4.95;;;;;;;5.13;99.58203;92935.03;;;;
2022/04/01 02:34:44;;;;;;;5.65;4.95;;;;;;;5.13;99.58203;92935.03;;;;
2022/04/01 02:35:44;;;;;;;5.65;4.95;;;;;;;5.13;99.58203;92935.03;;;;
2022/04/01 02:36:45;;;;;;;5.65;4.95;;;;;;;5.13;99.58203;92935.03;;;;
2022/04/01 02:37:46;;;;;;;5.65;4.95;;;;;;;5.13;99.58203;92935.03;;;;
2022/04/01 02:38:47;;;;;;;5.65;4.95;;;;;;;5.13;99.58203;92935.03;;;;
2022/04/01 02:39:47;;;;;;;5.65;4.95;;;;;;;5.13;99.58203;92935.03;;;;
2022/04/01 02:40:48;;;;;;;5.65;4.95;;;;;;;5.13;99.58203;92935.03;;;;
2022/04/01 02:41:49;;;;;;;5.65;4.95;;;;;;;5.13;99.58203;92935.03;;;;
2022/04/01 02:42:53;;;;;;;5.65;4.95;;;;;;;5.13;99.58203;92935.03;;;;
2022/04/01 02:44:08;;;;;;;5.65;4.95;;;;;;;5.13;99.58203;92935.03;;;;
2022/04/01 02:45:09;;;;;;;5.05;4.5;;;;;;;4.9;100;92930.91;;;;
2022/04/01 02:46:10;;;;;;;5.05;4.5;;;;;;;4.9;100;92930.91;;;;
2022/04/01 02:47:11;;;;;;;5.05;4.5;;;;;;;4.9;100;92930.91;;;;
2022/04/01 02:48:12;;;;;;;5.05;4.5;;;;;;;4.9;100;92930.91;;;;
2022/04/01 02:49:12;;;;;;;5.05;4.5;;;;;;;4.9;100;92930.91;;;;
2022/04/01 02:50:17;;;;;;;5.05;4.5;;;;;;;4.9;100;92930.91;;;;
2022/04/01 02:51:17;;;;;;;5.05;4.5;;;;;;;4.9;100;92930.91;;;;
2022/04/01 02:52:17;;;;;;;5.05;4.5;;;;;;;4.9;100;92930.91;;;;
2022/04/01 02:53:18;;;;;;;5.05;4.5;;;;;;;4.9;100;92930.91;;;;
2022/04/01 02:54:20;;;;;;;5.05;4.5;;;;;;;4.9;100;92930.91;;;;
2022/04/01 02:55:21;;;;;;;4.9;4.3;;;;;;;4.78;100;92941.94;;;;
2022/04/01 02:56:22;;;;;;;4.9;4.3;;;;;;;4.78;100;92941.94;;;;
2022/04/01 02:57:23;;;;;;;4.9;4.3;;;;;;;4.78;100;92941.94;;;;
2022/04/01 02:58:24;;;;;;;4.9;4.3;;;;;;;4.78;100;92941.94;;;;
2022/04/01 02:59:25;;;;;;;4.9;4.3;;;;;;;4.78;100;92941.94;;;;
2022/04/01 03:00:26;;;;;;;4.9;4.3;;;;;;;4.78;100;92941.94;;;;
2022/04/01 03:01:26;;;;;;;4.9;4.3;;;;;;;4.78;100;92941.94;;;;
2022/04/01 03:02:27;;;;;;;4.9;4.3;;;;;;;4.78;100;92941.94;;;;
2022/04/01 03:03:29;;;;;;;4.9;4.3;;;;;;;4.78;100;92941.94;;;;
2022/04/01 03:04:29;;;;;;;4.9;4.3;;;;;;;4.78;100;92941.94;;;;
2022/04/01 03:05:32;;;;;;;4.9;4.3;;;;;;;4.78;100;92941.94;;;;
2022/04/01 03:06:33;;;;;;;4.35;3.95;;;;;;;4.62;100;92945.04;;;;
2022/04/01 03:07:33;;;;;;;4.35;3.95;;;;;;;4.62;100;92945.04;;;;
2022/04/01 03:08:34;;;;;;;4.35;3.95;;;;;;;4.62;100;92945.04;;;;
2022/04/01 03:09:34;;;;;;;4.35;3.95;;;;;;;4.62;100;92945.04;;;;
2022/04/01 03:10:35;;;;;;;4.35;3.95;;;;;;;4.62;100;92945.04;;;;
2022/04/01 03:11:36;;;;;;;4.35;3.95;;;;;;;4.62;100;92945.04;;;;
2022/04/01 03:12:38;;;;;;;4.35;3.95;;;;;;;4.62;100;92945.04;;;;
2022/04/01 03:13:38;;;;;;;4.35;3.95;;;;;;;4.62;100;92945.04;;;;
2022/04/01 03:14:39;;;;;;;4.35;3.95;;;;;;;4.62;100;92945.04;;;;
2022/04/01 03:15:39;;;;;;;4.35;3.95;;;;;;;4.62;100;92945.04;;;;
2022/04/01 03:16:40;;;;;;;3.45;3.15;;;;;;;4.5;100;92939.06;;;;
2022/04/01 03:17:41;;;;;;;3.45;3.15;;;;;;;4.5;100;92939.06;;;;
2022/04/01 03:18:41;;;;;;;3.45;3.15;;;;;;;4.5;100;92939.06;;;;
2022/04/01 03:19:42;;;;;;;3.45;3.15;;;;;;;4.5;100;92939.06;;;;
2022/04/01 03:20:45;;;;;;;3.45;3.15;;;;;;;4.5;100;92939.06;;;;
2022/04/01 03:21:45;;;;;;;3.45;3.15;;;;;;;4.5;100;92939.06;;;;
2022/04/01 03:22:46;;;;;;;3.45;3.15;;;;;;;4.5;100;92939.06;;;;
2022/04/01 03:23:47;;;;;;;3.45;3.15;;;;;;;4.5;100;92939.06;;;;
2022/04/01 03:24:47;;;;;;;3.45;3.15;;;;;;;4.5;100;92939.06;;;;
2022/04/01 03:25:49;;;;;;;3.45;3.15;;;;;;;4.5;100;92939.06;;;;
2022/04/01 03:26:51;;;;;;;3.45;3.15;;;;;;;4.5;100;92939.06;;;;
2022/04/01 03:27:52;;;;;;;3.45;3.05;;;;;;;4.3;100;92946.53;;;;
2022/04/01 03:28:52;;;;;;;3.45;3.05;;;;;;;4.3;100;92946.53;;;;
2022/04/01 03:29:53;;;;;;;3.45;3.05;;;;;;;4.3;100;92946.53;;;;
2022/04/01 03:30:53;;;;;;;3.45;3.05;;;;;;;4.3;100;92946.53;;;;
2022/04/01 03:31:54;;;;;;;3.45;3.05;;;;;;;4.3;100;92946.53;;;;
2022/04/01 03:32:55;;;;;;;3.45;3.05;;;;;;;4.3;100;92946.53;;;;
2022/04/01 03:33:56;;;;;;;3.45;3.05;;;;;;;4.3;100;92946.53;;;;
2022/04/01 03:34:56;;;;;;;3.45;3.05;;;;;;;4.3;100;92946.53;;;;
2022/04/01 03:35:57;;;;;;;3.45;3.05;;;;;;;4.3;100;92946.53;;;;
2022/04/01 03:36:58;;;;;;;3.45;3.05;;;;;;;4.3;100;92946.53;;;;
2022/04/01 03:37:58;;;;;;;3.65;3.25;;;;;;;4.13;100;92949.33;;;;
2022/04/01 03:38:59;;;;;;;3.65;3.25;;;;;;;4.13;100;92949.33;;;;
2022/04/01 03:40:00;;;;;;;3.65;3.25;;;;;;;4.13;100;92949.33;;;;
2022/04/01 03:41:02;;;;;;;3.65;3.25;;;;;;;4.13;100;92949.33;;;;
2022/04/01 03:42:06;;;;;;;3.65;3.25;;;;;;;4.13;100;92949.33;;;;
2022/04/01 03:43:07;;;;;;;3.65;3.25;;;;;;;4.13;100;92949.33;;;;
2022/04/01 03:44:09;;;;;;;3.65;3.25;;;;;;;4.13;100;92949.33;;;;
2022/04/01 03:45:09;;;;;;;3.65;3.25;;;;;;;4.13;100;92949.33;;;;
2022/04/01 03:46:13;;;;;;;3.65;3.25;;;;;;;4.13;100;92949.33;;;;
2022/04/01 03:47:19;;;;;;;3.65;3.25;;;;;;;4.13;100;92949.33;;;;
2022/04/01 03:48:23;;;;;;;4.05;3.65;;;;;;;4.04;100;92949.11;;;;
2022/04/01 03:49:27;;;;;;;4.05;3.65;;;;;;;4.04;100;92949.11;;;;
2022/04/01 03:50:32;;;;;;;4.05;3.65;;;;;;;4.04;100;92949.11;;;;
2022/04/01 03:51:34;;;;;;;4.05;3.65;;;;;;;4.04;100;92949.11;;;;
2022/04/01 03:52:38;;;;;;;4.05;3.65;;;;;;;4.04;100;92949.11;;;;
2022/04/01 03:53:39;;;;;;;4.05;3.65;;;;;;;4.04;100;92949.11;;;;
2022/04/01 03:54:43;;;;;;;4.05;3.65;;;;;;;4.04;100;92949.11;;;;
2022/04/01 03:55:47;;;;;;;4.05;3.65;;;;;;;4.04;100;92949.11;;;;
2022/04/01 03:56:48;;;;;;;4.05;3.65;;;;;;;4.04;100;92949.11;;;;
2022/04/01 03:57:56;;;;;;;4.05;3.65;;;;;;;4.04;100;92949.11;;;;
2022/04/01 03:59:02;;;;;;;4;3.6;;;;;;;3.96;100;92947.83;;;;
2022/04/01 04:00:05;;;;;;;4;3.6;;;;;;;3.96;100;92947.83;;;;
2022/04/01 04:01:11;;;;;;;4;3.6;;;;;;;3.96;100;92947.83;;;;
2022/04/01 04:02:12;;;;;;;4;3.6;;;;;;;3.96;100;92947.83;;;;
2022/04/01 04:03:13;;;;;;;4;3.6;;;;;;;3.96;100;92947.83;;;;
2022/04/01 04:04:14;;;;;;;4;3.6;;;;;;;3.96;100;92947.83;;;;
2022/04/01 04:05:15;;;;;;;4;3.6;;;;;;;3.96;100;92947.83;;;;
2022/04/01 04:06:16;;;;;;;4;3.6;;;;;;;3.96;100;92947.83;;;;
2022/04/01 04:07:19;;;;;;;4;3.6;;;;;;;3.96;100;92947.83;;;;
2022/04/01 04:08:20;;;;;;;4;3.6;;;;;;;3.96;100;92947.83;;;;
2022/04/01 04:09:22;;;;;;;4;3.6;;;;;;;3.96;100;92947.83;;;;
2022/04/01 04:10:27;;;;;;;4.4;3.8;;;;;;;3.75;100;92957.9;;;;
2022/04/01 04:11:28;;;;;;;4.4;3.8;;;;;;;3.75;100;92957.9;;;;
2022/04/01 04:12:31;;;;;;;4.4;3.8;;;;;;;3.75;100;92957.9;;;;
2022/04/01 04:13:34;;;;;;;4.4;3.8;;;;;;;3.75;100;92957.9;;;;
2022/04/01 04:14:37;;;;;;;4.4;3.8;;;;;;;3.75;100;92957.9;;;;
2022/04/01 04:15:40;;;;;;;4.4;3.8;;;;;;;3.75;100;92957.9;;;;
2022/04/01 04:16:48;;;;;;;4.4;3.8;;;;;;;3.75;100;92957.9;;;;
2022/04/01 04:17:53;;;;;;;4.4;3.8;;;;;;;3.75;100;92957.9;;;;
2022/04/01 04:18:58;;;;;;;4.4;3.8;;;;;;;3.75;100;92957.9;;;;
2022/04/01 04:20:02;;;;;;;4.4;3.8;;;;;;;3.75;100;92957.9;;;;
2022/04/01 04:21:10;;;;;;;3.599999;3.3;;;;;;;3.57;100;92968.91;;;;
2022/04/01 04:22:17;;;;;;;3.599999;3.3;;;;;;;3.57;100;92968.91;;;;
2022/04/01 04:23:26;;;;;;;3.599999;3.3;;;;;;;3.57;100;92968.91;;;;
2022/04/01 04:24:34;;;;;;;3.599999;3.3;;;;;;;3.57;100;92968.91;;;;
2022/04/01 04:25:42;;;;;;;3.599999;3.3;;;;;;;3.57;100;92968.91;;;;
2022/04/01 04:26:57;;;;;;;3.599999;3.3;;;;;;;3.57;100;92968.91;;;;
2022/04/01 04:28:08;;;;;;;3.599999;3.3;;;;;;;3.57;100;92968.91;;;;
2022/04/01 04:29:10;;;;;;;3.599999;3.3;;;;;;;3.57;100;92968.91;;;;
2022/04/01 04:30:13;;;;;;;3.599999;3.3;;;;;;;3.57;100;92968.91;;;;
2022/04/01 04:31:14;;;;;;;4.450001;3.45;;;;;;;3.38;100;92980.96;;;;
2022/04/01 04:32:14;;;;;;;4.450001;3.45;;;;;;;3.38;100;92980.96;;;;
2022/04/01 04:33:25;;;;;;;4.450001;3.45;;;;;;;3.38;100;92980.96;;;;
2022/04/01 04:34:29;;;;;;;4.450001;3.45;;;;;;;3.38;100;92980.96;;;;
2022/04/01 04:35:35;;;;;;;4.450001;3.45;;;;;;;3.38;100;92980.96;;;;
2022/04/01 04:36:38;;;;;;;4.450001;3.45;;;;;;;3.38;100;92980.96;;;;
2022/04/01 04:37:40;;;;;;;4.450001;3.45;;;;;;;3.38;100;92980.96;;;;
2022/04/01 04:38:44;;;;;;;4.450001;3.45;;;;;;;3.38;100;92980.96;;;;
2022/04/01 04:39:46;;;;;;;4.450001;3.45;;;;;;;3.38;100;92980.96;;;;
2022/04/01 04:40:49;;;;;;;4.450001;3.45;;;;;;;3.38;100;92980.96;;;;
2022/04/01 04:41:50;;;;;;;4.450001;3.45;;;;;;;3.38;100;92980.96;;;;
2022/04/01 04:42:53;;;;;;;3.95;3.25;;;;;;;3.19;100;92991.23;;;;
2022/04/01 04:43:54;;;;;;;3.95;3.25;;;;;;;3.19;100;92991.23;;;;
2022/04/01 04:44:54;;;;;;;3.95;3.25;;;;;;;3.19;100;92991.23;;;;
2022/04/01 04:45:58;;;;;;;3.95;3.25;;;;;;;3.19;100;92991.23;;;;
2022/04/01 04:46:58;;;;;;;3.95;3.25;;;;;;;3.19;100;92991.23;;;;
2022/04/01 04:48:00;;;;;;;3.95;3.25;;;;;;;3.19;100;92991.23;;;;
2022/04/01 04:49:03;;;;;;;3.95;3.25;;;;;;;3.19;100;92991.23;;;;
2022/04/01 04:50:04;;;;;;;3.95;3.25;;;;;;;3.19;100;92991.23;;;;
2022/04/01 04:51:05;;;;;;;3.95;3.25;;;;;;;3.19;100;92991.23;;;;
2022/04/01 04:52:08;;;;;;;3.95;3.25;;;;;;;3.19;100;92991.23;;;;
2022/04/01 04:53:09;;;;;;;3.55;2.95;;;;;;;2.99;100;92994.95;;;;
2022/04/01 04:54:13;;;;;;;3.55;2.95;;;;;;;2.99;100;92994.95;;;;
2022/04/01 04:55:14;;;;;;;3.55;2.95;;;;;;;2.99;100;92994.95;;;;
2022/04/01 04:56:15;;;;;;;3.55;2.95;;;;;;;2.99;100;92994.95;;;;
2022/04/01 04:57:18;;;;;;;3.55;2.95;;;;;;;2.99;100;92994.95;;;;
2022/04/01 04:58:20;;;;;;;3.55;2.95;;;;;;;2.99;100;92994.95;;;;
2022/04/01 04:59:22;;;;;;;3.55;2.95;;;;;;;2.99;100;92994.95;;;;
2022/04/01 05:00:22;;;;;;;3.55;2.95;;;;;;;2.99;100;92994.95;;;;
2022/04/01 05:01:24;;;;;;;3.55;2.95;;;;;;;2.99;100;92994.95;;;;
2022/04/01 05:02:39;;;;;;;3.55;2.95;;;;;;;2.99;100;92994.95;;;;
2022/04/01 05:03:53;;;;;;;3.55;2.85;;;;;;;2.77;100;92998.91;;;;
2022/04/01 05:05:06;;;;;;;3.55;2.85;;;;;;;2.77;100;92998.91;;;;
2022/04/01 05:06:13;;;;;;;3.55;2.85;;;;;;;2.77;100;92998.91;;;;
2022/04/01 05:07:17;;;;;;;3.55;2.85;;;;;;;2.77;100;92998.91;;;;
2022/04/01 05:08:30;;;;;;;3.55;2.85;;;;;;;2.77;100;92998.91;;;;
2022/04/01 05:09:44;;;;;;;3.55;2.85;;;;;;;2.77;100;92998.91;;;;
2022/04/01 05:10:53;;;;;;;3.55;2.85;;;;;;;2.77;100;92998.91;;;;
2022/04/01 05:12:05;;;;;;;3.55;2.85;;;;;;;2.77;100;92998.91;;;;
2022/04/01 05:13:14;;;;;;;3.55;2.85;;;;;;;2.77;100;92998.91;;;;
2022/04/01 05:14:20;;;;;;;3.1;2.55;;;;;;;2.64;100;93017.5;;;;
2022/04/01 05:16:06;;;;;;;3.1;2.55;;;;;;;2.64;100;93017.5;;;;
2022/04/01 05:17:17;;;;;;;3.1;2.55;;;;;;;2.64;100;93017.5;;;;
2022/04/01 05:18:26;;;;;;;3.1;2.55;;;;;;;2.64;100;93017.5;;;;
2022/04/01 05:19:38;;;;;;;3.1;2.55;;;;;;;2.64;100;93017.5;;;;
2022/04/01 05:20:40;;;;;;;3.1;2.55;;;;;;;2.64;100;93017.5;;;;
2022/04/01 05:21:51;;;;;;;3.1;2.55;;;;;;;2.64;100;93017.5;;;;
2022/04/01 05:22:59;;;;;;;3.1;2.55;;;;;;;2.64;100;93017.5;;;;
2022/04/01 05:24:10;;;;;;;3.1;2.55;;;;;;;2.64;100;93017.5;;;;
2022/04/01 05:25:12;;;;;;;3.1;2.55;;;;;;;2.64;100;93017.5;;;;
2022/04/01 05:26:18;;;;;;;3.1;2.55;;;;;;;2.64;100;93017.5;;;;
2022/04/01 05:27:24;;;;;;;3.1;2.55;;;;;;;2.64;100;93017.5;;;;
2022/04/01 05:28:28;;;;;;;3.1;2.55;;;;;;;2.64;100;93017.5;;;;
2022/04/01 05:29:31;;;;;;;3.1;2.55;;;;;;;2.64;100;93017.5;;;;
2022/04/01 05:30:41;;;;;;;3.1;2.55;;;;;;;2.64;100;93017.5;;;;
2022/04/01 05:31:42;;;;;;;3.1;2.55;;;;;;;2.64;100;93017.5;;;;
2022/04/01 05:32:46;;;;;;;3.1;2.55;;;;;;;2.64;100;93017.5;;;;
2022/04/01 05:33:57;;;;;;;3.1;2.55;;;;;;;2.64;100;93017.5;;;;
2022/04/01 05:35:06;;;;;;;3.1;2.55;;;;;;;2.64;100;93017.5;;;;
2022/04/01 05:36:08;;;;;;;2.9;2.3;;;;;;;2.53;100;93033.85;;;;
2022/04/01 05:37:09;;;;;;;2.9;2.3;;;;;;;2.53;100;93033.85;;;;
2022/04/01 05:38:10;;;;;;;2.9;2.3;;;;;;;2.53;100;93033.85;;;;
2022/04/01 05:39:11;;;;;;;2.9;2.3;;;;;;;2.53;100;93033.85;;;;
2022/04/01 05:40:14;;;;;;;2.9;2.3;;;;;;;2.53;100;93033.85;;;;
2022/04/01 05:41:19;;;;;;;2.9;2.3;;;;;;;2.53;100;93033.85;;;;
2022/04/01 05:42:21;;;;;;;2.9;2.3;;;;;;;2.53;100;93033.85;;;;
2022/04/01 05:43:25;;;;;;;2.9;2.3;;;;;;;2.53;100;93033.85;;;;
2022/04/01 05:44:27;;;;;;;2.9;2.3;;;;;;;2.53;100;93033.85;;;;
2022/04/01 05:45:29;;;;;;;2.9;2.3;;;;;;;2.53;100;93033.85;;;;
2022/04/01 05:46:29;;;;;;;2.75;2.4;;;;;;;2.59;100;93042.19;;;;
2022/04/01 05:47:30;;;;;;;2.75;2.4;;;;;;;2.59;100;93042.19;;;;
2022/04/01 05:48:31;;;;;;;2.75;2.4;;;;;;;2.59;100;93042.19;;;;
2022/04/01 05:49:32;;;;;;;2.75;2.4;;;;;;;2.59;100;93042.19;;;;
2022/04/01 05:50:37;;;;;;;2.75;2.4;;;;;;;2.59;100;93042.19;;;;
2022/04/01 05:51:38;;;;;;;2.75;2.4;;;;;;;2.59;100;93042.19;;;;
2022/04/01 05:52:40;;;;;;;2.75;2.4;;;;;;;2.59;100;93042.19;;;;
2022/04/01 05:53:41;;;;;;;2.75;2.4;;;;;;;2.59;100;93042.19;;;;
2022/04/01 05:54:44;;;;;;;2.75;2.4;;;;;;;2.59;100;93042.19;;;;
2022/04/01 05:55:45;;;;;;;2.75;2.4;;;;;;;2.59;100;93042.19;;;;
2022/04/01 05:56:47;;;;;;;3.35;2.3;;;;;;;2.66;100;93048.71;;;;
2022/04/01 05:57:49;;;;;;;3.35;2.3;;;;;;;2.66;100;93048.71;;;;
2022/04/01 05:58:49;;;;;;;3.35;2.3;;;;;;;2.66;100;93048.71;;;;
2022/04/01 05:59:50;;;;;;;3.35;2.3;;;;;;;2.66;100;93048.71;;;;
2022/04/01 06:00:50;;;;;;;3.35;2.3;;;;;;;2.66;100;93048.71;;;;
2022/04/01 06:02:02;;;;;;;3.35;2.3;;;;;;;2.66;100;93048.71;;;;
2022/04/01 06:03:19;;;;;;;3.35;2.3;;;;;;;2.66;100;93048.71;;;;
2022/04/01 06:04:49;;;;;;;3.35;2.3;;;;;;;2.66;100;93048.71;;;;
2022/04/01 06:06:05;;;;;;;3.35;2.3;;;;;;;2.66;100;93048.71;;;;
2022/04/01 06:07:12;;;;;;;3.35;2.3;;;;;;;2.66;100;93048.71;;;;
2022/04/01 06:08:27;;;;;;;2.75;2.3;;;;;;;2.71;100;93054.11;;;;
2022/04/01 06:09:39;;;;;;;2.75;2.3;;;;;;;2.71;100;93054.11;;;;
2022/04/01 06:10:49;;;;;;;2.75;2.3;;;;;;;2.71;100;93054.11;;;;
2022/04/01 06:11:59;;;;;;;2.75;2.3;;;;;;;2.71;100;93054.11;;;;
2022/04/01 06:13:03;;;;;;;2.75;2.3;;;;;;;2.71;100;93054.11;;;;
2022/04/01 06:14:15;;;;;;;2.75;2.3;;;;;;;2.71;100;93054.11;;;;
2022/04/01 06:15:25;;;;;;;2.75;2.3;;;;;;;2.71;100;93054.11;;;;
2022/04/01 06:16:31;;;;;;;2.75;2.3;;;;;;;2.71;100;93054.11;;;;
2022/04/01 06:17:42;;;;;;;2.75;2.3;;;;;;;2.71;100;93054.11;;;;